sensor_id;sensor_type;location;lat;lon;timestamp;pressure;altitude;pressure_sealevel;temperature;humidity
4576;BME280;2300;51.874;8.430;2023-07-31T00:00:50;100176.84;;;15.72;100.00
4576;BME280;2300;51.874;8.430;2023-07-31T00:03:16;100172.41;;;15.71;100.00
4576;BME280;2300;51.874;8.430;2023-07-31T00:05:43;100177.13;;;15.80;100.00
4576;BME280;2300;51.874;8.430;2023-07-31T00:08:09;100164.09;;;15.81;100.00
4576;BME280;2300;51.874;8.430;2023-07-31T00:10:36;100157.47;;;15.77;100.00
4576;BME280;2300;51.874;8.430;2023-07-31T00:13:04;100163.81;;;15.82;100.00
4576;BME280;2300;51.874;8.430;2023-07-31T00:15:30;100156.94;;;15.70;100.00
4576;BME280;2300;51.874;8.430;2023-07-31T00:17:57;100146.97;;;15.74;100.00
4576;BME280;2300;51.874;8.430;2023-07-31T00:20:23;100152.19;;;15.75;100.00
4576;BME280;2300;51.874;8.430;2023-07-31T00:22:50;100148.91;;;15.78;100.00
4576;BME280;2300;51.874;8.430;2023-07-31T00:25:16;100148.63;;;15.85;100.00
4576;BME280;2300;51.874;8.430;2023-07-31T00:27:43;100151.06;;;15.86;100.00
4576;BME280;2300;51.874;8.430;2023-07-31T00:30:12;100148.06;;;15.83;100.00
4576;BME280;2300;51.874;8.430;2023-07-31T00:32:39;100149.97;;;15.87;100.00
4576;BME280;2300;51.874;8.430;2023-07-31T00:35:06;100148.31;;;15.86;100.00
4576;BME280;2300;51.874;8.430;2023-07-31T00:37:32;100152.22;;;15.85;100.00
4576;BME280;2300;51.874;8.430;2023-07-31T00:39:59;100143.09;;;15.80;100.00
4576;BME280;2300;51.874;8.430;2023-07-31T00:42:25;100158.00;;;15.89;100.00
4576;BME280;2300;51.874;8.430;2023-07-31T00:44:52;100158.56;;;15.86;100.00
4576;BME280;2300;51.874;8.430;2023-07-31T00:47:20;100153.31;;;15.89;100.00
4576;BME280;2300;51.874;8.430;2023-07-31T00:49:47;100149.69;;;15.94;100.00
4576;BME280;2300;51.874;8.430;2023-07-31T00:52:14;100143.09;;;15.80;100.00
4576;BME280;2300;51.874;8.430;2023-07-31T00:54:41;100149.44;;;15.90;100.00
4576;BME280;2300;51.874;8.430;2023-07-31T00:57:07;100148.63;;;15.85;100.00
4576;BME280;2300;51.874;8.430;2023-07-31T00:59:34;100150.25;;;15.81;100.00
4576;BME280;2300;51.874;8.430;2023-07-31T01:02:02;100149.13;;;15.87;100.00
4576;BME280;2300;51.874;8.430;2023-07-31T01:04:30;100148.06;;;15.78;100.00
4576;BME280;2300;51.874;8.430;2023-07-31T01:07:02;100157.47;;;15.72;100.00
4576;BME280;2300;51.874;8.430;2023-07-31T01:09:35;100146.97;;;15.79;100.00
4576;BME280;2300;51.874;8.430;2023-07-31T01:12:04;100147.25;;;15.72;100.00
4576;BME280;2300;51.874;8.430;2023-07-31T01:14:32;100148.66;;;15.65;100.00
4576;BME280;2300;51.874;8.430;2023-07-31T01:17:00;100160.25;;;15.57;100.00
4576;BME280;2300;51.874;8.430;2023-07-31T01:19:26;100154.75;;;15.46;100.00
4576;BME280;2300;51.874;8.430;2023-07-31T01:24:55;100159.19;;;15.32;100.00
4576;BME280;2300;51.874;8.430;2023-07-31T01:27:30;100141.19;;;15.15;100.00
4576;BME280;2300;51.874;8.430;2023-07-31T01:30:02;100145.88;;;15.14;100.00
4576;BME280;2300;51.874;8.430;2023-07-31T01:32:36;100148.66;;;15.29;100.00
4576;BME280;2300;51.874;8.430;2023-07-31T01:35:06;100145.34;;;15.27;100.00
4576;BME280;2300;51.874;8.430;2023-07-31T01:37:33;100148.63;;;15.09;100.00
4576;BME280;2300;51.874;8.430;2023-07-31T01:39:59;100134.81;;;15.09;100.00
4576;BME280;2300;51.874;8.430;2023-07-31T01:42:27;100130.34;;;15.08;100.00
4576;BME280;2300;51.874;8.430;2023-07-31T01:44:54;100137.00;;;15.02;100.00
4576;BME280;2300;51.874;8.430;2023-07-31T01:47:20;100130.63;;;14.96;100.00
4576;BME280;2300;51.874;8.430;2023-07-31T01:49:47;100127.31;;;14.99;100.00
4576;BME280;2300;51.874;8.430;2023-07-31T01:52:13;100125.94;;;14.92;100.00
4576;BME280;2300;51.874;8.430;2023-07-31T01:54:40;100125.38;;;14.85;100.00
4576;BME280;2300;51.874;8.430;2023-07-31T01:57:06;100121.78;;;14.84;100.00
4576;BME280;2300;51.874;8.430;2023-07-31T01:59:34;100122.06;;;14.98;100.00
4576;BME280;2300;51.874;8.430;2023-07-31T02:02:01;100118.75;;;14.96;100.00
4576;BME280;2300;51.874;8.430;2023-07-31T02:04:27;100109.06;;;15.03;100.00
4576;BME280;2300;51.874;8.430;2023-07-31T02:06:54;100110.19;;;14.97;100.00
4576;BME280;2300;51.874;8.430;2023-07-31T02:09:20;100102.66;;;14.73;100.00
4576;BME280;2300;51.874;8.430;2023-07-31T02:11:46;100102.97;;;14.81;100.00
4576;BME280;2300;51.874;8.430;2023-07-31T02:14:13;100102.69;;;14.78;100.00
4576;BME280;2300;51.874;8.430;2023-07-31T02:16:40;100101.56;;;14.69;100.00
4576;BME280;2300;51.874;8.430;2023-07-31T02:19:08;100091.34;;;14.64;100.00
4576;BME280;2300;51.874;8.430;2023-07-31T02:21:34;100095.75;;;14.60;100.00
4576;BME280;2300;51.874;8.430;2023-07-31T02:24:01;100083.31;;;14.62;100.00
4576;BME280;2300;51.874;8.430;2023-07-31T02:26:27;100078.63;;;14.63;100.00
4576;BME280;2300;51.874;8.430;2023-07-31T02:28:54;100086.09;;;14.67;100.00
4576;BME280;2300;51.874;8.430;2023-07-31T02:31:20;100084.47;;;14.72;100.00
4576;BME280;2300;51.874;8.430;2023-07-31T02:33:48;100084.47;;;14.77;100.00
4576;BME280;2300;51.874;8.430;2023-07-31T02:36:15;100086.09;;;14.73;100.00
4576;BME280;2300;51.874;8.430;2023-07-31T02:38:41;100088.31;;;14.76;100.00
4576;BME280;2300;51.874;8.430;2023-07-31T02:41:08;100082.81;;;14.76;100.00
4576;BME280;2300;51.874;8.430;2023-07-31T02:43:34;100070.31;;;14.58;100.00
4576;BME280;2300;51.874;8.430;2023-07-31T02:46:01;100077.25;;;14.65;100.00
4576;BME280;2300;51.874;8.430;2023-07-31T02:48:27;100076.13;;;14.61;100.00
4576;BME280;2300;51.874;8.430;2023-07-31T02:50:55;100068.97;;;14.71;100.00
4576;BME280;2300;51.874;8.430;2023-07-31T02:53:22;100080.84;;;14.71;100.00
4576;BME280;2300;51.874;8.430;2023-07-31T02:55:49;100071.75;;;14.76;100.00
4576;BME280;2300;51.874;8.430;2023-07-31T02:58:15;100066.50;;;14.84;100.00
4576;BME280;2300;51.874;8.430;2023-07-31T03:00:42;100070.09;;;14.90;100.00
4576;BME280;2300;51.874;8.430;2023-07-31T03:03:09;100067.31;;;15.00;100.00
4576;BME280;2300;51.874;8.430;2023-07-31T03:05:35;100074.00;;;15.09;100.00
4576;BME280;2300;51.874;8.430;2023-07-31T03:08:04;100071.50;;;15.13;100.00
4576;BME280;2300;51.874;8.430;2023-07-31T03:10:30;100064.56;;;15.25;100.00
4576;BME280;2300;51.874;8.430;2023-07-31T03:12:57;100072.59;;;15.32;100.00
4576;BME280;2300;51.874;8.430;2023-07-31T03:15:23;100044.69;;;15.23;100.00
4576;BME280;2300;51.874;8.430;2023-07-31T03:17:50;100080.59;;;15.48;100.00
4576;BME280;2300;51.874;8.430;2023-07-31T03:20:17;100076.13;;;15.63;100.00
4576;BME280;2300;51.874;8.430;2023-07-31T03:22:43;100084.44;;;15.63;100.00
4576;BME280;2300;51.874;8.430;2023-07-31T03:25:11;100072.81;;;15.61;100.00
4576;BME280;2300;51.874;8.430;2023-07-31T03:27:38;100077.22;;;15.67;100.00
4576;BME280;2300;51.874;8.430;2023-07-31T03:30:05;100085.53;;;15.67;100.00
4576;BME280;2300;51.874;8.430;2023-07-31T03:32:32;100071.41;;;15.68;100.00
4576;BME280;2300;51.874;8.430;2023-07-31T03:34:58;100079.44;;;15.75;100.00
4576;BME280;2300;51.874;8.430;2023-07-31T03:37:25;100074.19;;;15.68;100.00
4576;BME280;2300;51.874;8.430;2023-07-31T03:39:52;100067.25;;;15.66;100.00
4576;BME280;2300;51.874;8.430;2023-07-31T03:42:19;100066.72;;;15.69;100.00
4576;BME280;2300;51.874;8.430;2023-07-31T03:44:46;100071.69;;;15.67;100.00
4576;BME280;2300;51.874;8.430;2023-07-31T03:47:12;100065.63;;;15.70;100.00
4576;BME280;2300;51.874;8.430;2023-07-31T03:49:39;100058.94;;;15.71;100.00
4576;BME280;2300;51.874;8.430;2023-07-31T03:52:06;100066.44;;;15.65;100.00
4576;BME280;2300;51.874;8.430;2023-07-31T03:54:33;100073.91;;;15.70;100.00
4576;BME280;2300;51.874;8.430;2023-07-31T03:56:59;100058.94;;;15.71;100.00
4576;BME280;2300;51.874;8.430;2023-07-31T03:59:27;100065.06;;;15.68;100.00
4576;BME280;2300;51.874;8.430;2023-07-31T04:01:54;100063.38;;;15.67;100.00
4576;BME280;2300;51.874;8.430;2023-07-31T04:04:20;100066.72;;;15.64;100.00
4576;BME280;2300;51.874;8.430;2023-07-31T04:06:47;100075.28;;;15.67;100.00
4576;BME280;2300;51.874;8.430;2023-07-31T04:09:13;100071.66;;;15.77;100.00
4576;BME280;2300;51.874;8.430;2023-07-31T04:11:40;100074.72;;;15.70;100.00
4576;BME280;2300;51.874;8.430;2023-07-31T04:14:06;100078.03;;;15.77;100.00
4576;BME280;2300;51.874;8.430;2023-07-31T04:16:34;100079.44;;;15.75;100.00
4576;BME280;2300;51.874;8.430;2023-07-31T04:19:01;100080.25;;;15.70;100.00
4576;BME280;2300;51.874;8.430;2023-07-31T04:21:28;100074.44;;;15.72;100.00
4576;BME280;2300;51.874;8.430;2023-07-31T04:23:54;100073.06;;;15.74;100.00
4576;BME280;2300;51.874;8.430;2023-07-31T04:26:21;100055.16;;;15.46;100.00
4576;BME280;2300;51.874;8.430;2023-07-31T04:28:47;100075.56;;;15.71;100.00
4576;BME280;2300;51.874;8.430;2023-07-31T04:31:14;100082.78;;;15.57;100.00
4576;BME280;2300;51.874;8.430;2023-07-31T04:33:42;100071.72;;;15.62;100.00
4576;BME280;2300;51.874;8.430;2023-07-31T04:36:08;100076.13;;;15.63;100.00
4576;BME280;2300;51.874;8.430;2023-07-31T04:38:35;100078.34;;;15.61;100.00
4576;BME280;2300;51.874;8.430;2023-07-31T04:41:02;100075.03;;;15.64;100.00
4576;BME280;2300;51.874;8.430;2023-07-31T04:43:29;100065.03;;;15.73;100.00
4576;BME280;2300;51.874;8.430;2023-07-31T04:45:55;100073.91;;;15.75;100.00
4576;BME280;2300;51.874;8.430;2023-07-31T04:48:23;100075.00;;;15.79;100.00
4576;BME280;2300;51.874;8.430;2023-07-31T04:50:51;100063.63;;;15.75;100.00
4576;BME280;2300;51.874;8.430;2023-07-31T04:53:18;100065.00;;;15.83;100.00
4576;BME280;2300;51.874;8.430;2023-07-31T04:55:45;100057.56;;;15.78;100.00
4576;BME280;2300;51.874;8.430;2023-07-31T04:58:11;100066.13;;;15.77;100.00
4576;BME280;2300;51.874;8.430;2023-07-31T05:00:38;100070.53;;;15.83;100.00
4576;BME280;2300;51.874;8.430;2023-07-31T05:03:04;100068.88;;;15.82;100.00
4576;BME280;2300;51.874;8.430;2023-07-31T05:05:32;100060.06;;;15.75;100.00
4576;BME280;2300;51.874;8.430;2023-07-31T05:07:59;100066.94;;;15.87;100.00
4576;BME280;2300;51.874;8.430;2023-07-31T05:10:26;100058.06;;;15.96;100.00
4576;BME280;2300;51.874;8.430;2023-07-31T05:12:53;100063.63;;;15.85;100.00
4576;BME280;2300;51.874;8.430;2023-07-31T05:15:19;100052.81;;;15.89;100.00
4576;BME280;2300;51.874;8.430;2023-07-31T05:17:46;100062.44;;;15.97;100.00
4576;BME280;2300;51.874;8.430;2023-07-31T05:20:12;100059.97;;;16.00;100.00
4576;BME280;2300;51.874;8.430;2023-07-31T05:22:40;100058.84;;;16.06;100.00
4576;BME280;2300;51.874;8.430;2023-07-31T05:25:08;100059.38;;;16.03;100.00
4576;BME280;2300;51.874;8.430;2023-07-31T05:27:35;100065.50;;;16.10;100.00
4576;BME280;2300;51.874;8.430;2023-07-31T05:30:01;100060.22;;;16.04;100.00
4576;BME280;2300;51.874;8.430;2023-07-31T05:32:28;100063.25;;;16.12;100.00
4576;BME280;2300;51.874;8.430;2023-07-31T05:34:55;100062.13;;;16.08;100.00
4576;BME280;2300;51.874;8.430;2023-07-31T05:37:22;100071.03;;;16.10;100.00
4576;BME280;2300;51.874;8.430;2023-07-31T05:39:48;100062.97;;;16.09;100.00
4576;BME280;2300;51.874;8.430;2023-07-31T05:42:17;100063.25;;;16.02;100.00
4576;BME280;2300;51.874;8.430;2023-07-31T05:44:43;100064.94;;;16.03;100.00
4576;BME280;2300;51.874;8.430;2023-07-31T05:47:10;100058.25;;;16.19;100.00
4576;BME280;2300;51.874;8.430;2023-07-31T05:49:37;100057.69;;;16.17;100.00
4576;BME280;2300;51.874;8.430;2023-07-31T05:52:04;100065.44;;;16.20;100.00
4576;BME280;2300;51.874;8.430;2023-07-31T05:54:32;100066.00;;;16.17;100.00
4576;BME280;2300;51.874;8.430;2023-07-31T05:56:58;100054.88;;;16.22;100.00
4576;BME280;2300;51.874;8.430;2023-07-31T05:59:26;100054.31;;;16.30;100.00
4576;BME280;2300;51.874;8.430;2023-07-31T06:01:53;100054.84;;;16.32;100.00
4576;BME280;2300;51.874;8.430;2023-07-31T06:04:19;100057.66;;;16.22;100.00
4576;BME280;2300;51.874;8.430;2023-07-31T06:06:46;100048.81;;;16.20;100.00
4576;BME280;2300;51.874;8.430;2023-07-31T06:09:13;100056.59;;;16.18;100.00
4576;BME280;2300;51.874;8.430;2023-07-31T06:11:39;100051.72;;;16.44;100.00
4576;BME280;2300;51.874;8.430;2023-07-31T06:14:06;100048.09;;;16.49;100.00
4576;BME280;2300;51.874;8.430;2023-07-31T06:16:34;100050.31;;;16.52;100.00
4576;BME280;2300;51.874;8.430;2023-07-31T06:19:01;100046.94;;;16.55;100.00
4576;BME280;2300;51.874;8.430;2023-07-31T06:21:28;100041.97;;;16.57;100.00
4576;BME280;2300;51.874;8.430;2023-07-31T06:23:55;100045.56;;;16.57;100.00
4576;BME280;2300;51.874;8.430;2023-07-31T06:26:21;100052.78;;;16.53;100.00
4576;BME280;2300;51.874;8.430;2023-07-31T06:28:48;100052.97;;;16.67;100.00
4576;BME280;2300;51.874;8.430;2023-07-31T06:31:15;100044.31;;;16.79;100.00
4576;BME280;2300;51.874;8.430;2023-07-31T06:33:45;100034.84;;;16.80;100.00
4576;BME280;2300;51.874;8.430;2023-07-31T06:36:12;100035.69;;;16.80;100.00
4576;BME280;2300;51.874;8.430;2023-07-31T06:38:38;100039.56;;;16.79;100.00
4576;BME280;2300;51.874;8.430;2023-07-31T06:41:05;100040.97;;;16.76;100.00
4576;BME280;2300;51.874;8.430;2023-07-31T06:43:31;100032.06;;;16.80;100.00
4576;BME280;2300;51.874;8.430;2023-07-31T06:46:00;100031.22;;;16.84;100.00
4576;BME280;2300;51.874;8.430;2023-07-31T06:48:30;100022.13;;;16.79;100.00
4576;BME280;2300;51.874;8.430;2023-07-31T06:50:58;100017.97;;;16.76;100.00
4576;BME280;2300;51.874;8.430;2023-07-31T06:53:25;100012.44;;;16.76;100.00
4576;BME280;2300;51.874;8.430;2023-07-31T06:55:51;100019.03;;;16.80;100.00
4576;BME280;2300;51.874;8.430;2023-07-31T06:58:18;100023.44;;;16.86;100.00
4576;BME280;2300;51.874;8.430;2023-07-31T07:00:45;100022.94;;;16.79;100.00
4576;BME280;2300;51.874;8.430;2023-07-31T07:03:11;100011.78;;;16.84;100.00
4576;BME280;2300;51.874;8.430;2023-07-31T07:05:40;100022.38;;;16.82;100.00
4576;BME280;2300;51.874;8.430;2023-07-31T07:08:08;100010.16;;;16.83;100.00
4576;BME280;2300;51.874;8.430;2023-07-31T07:10:34;100019.91;;;16.75;100.00
4576;BME280;2300;51.874;8.430;2023-07-31T07:13:01;100022.38;;;16.82;100.00
4576;BME280;2300;51.874;8.430;2023-07-31T07:15:27;100015.16;;;16.81;100.00
4576;BME280;2300;51.874;8.430;2023-07-31T07:17:54;100016.31;;;16.75;100.00
4576;BME280;2300;51.874;8.430;2023-07-31T07:20:20;100023.91;;;16.59;100.00
4576;BME280;2300;51.874;8.430;2023-07-31T07:22:47;100027.47;;;16.65;100.00
4576;BME280;2300;51.874;8.430;2023-07-31T07:25:15;100014.81;;;16.54;100.00
4576;BME280;2300;51.874;8.430;2023-07-31T07:27:42;100028.97;;;16.52;100.00
4576;BME280;2300;51.874;8.430;2023-07-31T07:30:09;100032.59;;;16.48;100.00
4576;BME280;2300;51.874;8.430;2023-07-31T07:32:36;100040.44;;;16.36;100.00
4576;BME280;2300;51.874;8.430;2023-07-31T07:35:03;100043.78;;;16.27;100.00
4576;BME280;2300;51.874;8.430;2023-07-31T07:37:30;100052.09;;;16.27;100.00
4576;BME280;2300;51.874;8.430;2023-07-31T07:39:56;100039.34;;;16.31;100.00
4576;BME280;2300;51.874;8.430;2023-07-31T07:42:24;100039.34;;;16.31;100.00
4576;BME280;2300;51.874;8.430;2023-07-31T07:44:51;100023.88;;;16.25;100.00
4576;BME280;2300;51.874;8.430;2023-07-31T07:47:17;100024.69;;;16.26;100.00
4576;BME280;2300;51.874;8.430;2023-07-31T07:49:44;100024.94;;;16.29;100.00
4576;BME280;2300;51.874;8.430;2023-07-31T07:52:10;100028.28;;;16.31;100.00
4576;BME280;2300;51.874;8.430;2023-07-31T07:54:37;100028.22;;;16.42;100.00
4576;BME280;2300;51.874;8.430;2023-07-31T07:57:04;100026.59;;;16.36;100.00
4576;BME280;2300;51.874;8.430;2023-07-31T07:59:32;100019.09;;;16.36;100.00
4576;BME280;2300;51.874;8.430;2023-07-31T08:01:58;100017.16;;;16.37;100.00
4576;BME280;2300;51.874;8.430;2023-07-31T08:04:25;100018.50;;;16.39;100.00
4576;BME280;2300;51.874;8.430;2023-07-31T08:06:51;100019.09;;;16.36;100.00
4576;BME280;2300;51.874;8.430;2023-07-31T08:09:18;100015.53;;;16.30;100.00
4576;BME280;2300;51.874;8.430;2023-07-31T08:11:45;100011.59;;;16.42;100.00
4576;BME280;2300;51.874;8.430;2023-07-31T08:14:11;99999.34;;;16.48;100.00
4576;BME280;2300;51.874;8.430;2023-07-31T08:16:39;99999.81;;;16.60;100.00
4576;BME280;2300;51.874;8.430;2023-07-31T08:19:06;99992.00;;;16.67;100.00
4576;BME280;2300;51.874;8.430;2023-07-31T08:21:33;99991.00;;;16.87;100.00
4576;BME280;2300;51.874;8.430;2023-07-31T08:23:59;99986.97;;;16.69;100.00
4576;BME280;2300;51.874;8.430;2023-07-31T08:26:26;99982.72;;;16.82;100.00
4576;BME280;2300;51.874;8.430;2023-07-31T08:28:52;99984.06;;;16.89;100.00
4576;BME280;2300;51.874;8.430;2023-07-31T08:31:19;99980.28;;;16.75;100.00
4576;BME280;2300;51.874;8.430;2023-07-31T08:33:47;99978.16;;;16.67;100.00
4576;BME280;2300;51.874;8.430;2023-07-31T08:36:13;99973.19;;;16.59;100.00
4576;BME280;2300;51.874;8.430;2023-07-31T08:38:40;99967.50;;;16.45;100.00
4576;BME280;2300;51.874;8.430;2023-07-31T08:41:06;99962.78;;;16.46;100.00
4576;BME280;2300;51.874;8.430;2023-07-31T08:43:33;99961.09;;;16.50;100.00
4576;BME280;2300;51.874;8.430;2023-07-31T08:46:00;99958.81;;;16.57;100.00
4576;BME280;2300;51.874;8.430;2023-07-31T08:48:28;99953.25;;;16.62;100.00
4576;BME280;2300;51.874;8.430;2023-07-31T08:50:57;99953.81;;;16.59;100.00
4576;BME280;2300;51.874;8.430;2023-07-31T08:53:23;99964.94;;;16.54;100.00
4576;BME280;2300;51.874;8.430;2023-07-31T08:55:52;99954.94;;;16.58;100.00
4576;BME280;2300;51.874;8.430;2023-07-31T08:58:19;99952.03;;;16.73;100.00
4576;BME280;2300;51.874;8.430;2023-07-31T09:00:46;99963.00;;;16.88;100.00
4576;BME280;2300;51.874;8.430;2023-07-31T09:03:14;99960.22;;;16.88;100.00
4576;BME280;2300;51.874;8.430;2023-07-31T09:05:42;99967.31;;;16.99;100.00
4576;BME280;2300;51.874;8.430;2023-07-31T09:08:12;99962.91;;;16.98;100.00
4576;BME280;2300;51.874;8.430;2023-07-31T09:10:42;99947.97;;;16.94;100.00
4576;BME280;2300;51.874;8.430;2023-07-31T09:13:11;99956.22;;;17.04;100.00
4576;BME280;2300;51.874;8.430;2023-07-31T09:15:38;99950.47;;;17.25;100.00
4576;BME280;2300;51.874;8.430;2023-07-31T09:18:07;99950.63;;;17.09;100.00
4576;BME280;2300;51.874;8.430;2023-07-31T09:20:33;99961.34;;;17.16;100.00
4576;BME280;2300;51.874;8.430;2023-07-31T09:23:06;99947.69;;;17.25;100.00
4576;BME280;2300;51.874;8.430;2023-07-31T09:25:35;99925.66;;;17.09;100.00
4576;BME280;2300;51.874;8.430;2023-07-31T09:28:03;99943.13;;;17.34;100.00
4576;BME280;2300;51.874;8.430;2023-07-31T09:30:30;99934.69;;;17.44;100.00
4576;BME280;2300;51.874;8.430;2023-07-31T09:33:02;99944.97;;;17.43;100.00
4576;BME280;2300;51.874;8.430;2023-07-31T09:35:30;99941.22;;;17.53;100.00
4576;BME280;2300;51.874;8.430;2023-07-31T09:37:58;99946.13;;;17.61;100.00
4576;BME280;2300;51.874;8.430;2023-07-31T09:40:27;99944.53;;;17.55;100.00
4576;BME280;2300;51.874;8.430;2023-07-31T09:42:58;99936.09;;;17.41;100.00
4576;BME280;2300;51.874;8.430;2023-07-31T09:45:25;99936.47;;;17.35;100.00
4576;BME280;2300;51.874;8.430;2023-07-31T09:47:51;99931.63;;;17.45;100.00
4576;BME280;2300;51.874;8.430;2023-07-31T09:50:20;99934.84;;;17.52;100.00
4576;BME280;2300;51.874;8.430;2023-07-31T09:52:47;99931.72;;;17.59;100.00
4576;BME280;2300;51.874;8.430;2023-07-31T09:55:13;99900.28;;;17.64;100.00
4576;BME280;2300;51.874;8.430;2023-07-31T09:57:41;99918.97;;;18.00;100.00
4576;BME280;2300;51.874;8.430;2023-07-31T10:00:10;99890.97;;;17.97;100.00
4576;BME280;2300;51.874;8.430;2023-07-31T10:02:38;99919.44;;;18.08;100.00
4576;BME280;2300;51.874;8.430;2023-07-31T10:05:06;99926.66;;;17.85;100.00
4576;BME280;2300;51.874;8.430;2023-07-31T10:07:36;99919.22;;;17.80;100.00
4576;BME280;2300;51.874;8.430;2023-07-31T10:10:05;99926.03;;;18.12;100.00
4576;BME280;2300;51.874;8.430;2023-07-31T10:12:33;99925.72;;;17.94;100.00
4576;BME280;2300;51.874;8.430;2023-07-31T10:15:01;99917.66;;;17.74;100.00
4576;BME280;2300;51.874;8.430;2023-07-31T10:17:30;99912.34;;;17.54;100.00
4576;BME280;2300;51.874;8.430;2023-07-31T10:19:58;99922.00;;;17.80;100.00
4576;BME280;2300;51.874;8.430;2023-07-31T10:22:27;99921.03;;;17.90;100.00
4576;BME280;2300;51.874;8.430;2023-07-31T10:24:55;99913.50;;;17.95;100.00
4576;BME280;2300;51.874;8.430;2023-07-31T10:27:27;99931.66;;;18.07;100.00
4576;BME280;2300;51.874;8.430;2023-07-31T10:29:56;99924.97;;;18.26;100.00
4576;BME280;2300;51.874;8.430;2023-07-31T10:32:24;99916.28;;;17.95;100.00
4576;BME280;2300;51.874;8.430;2023-07-31T10:34:52;99926.03;;;17.69;100.00
4576;BME280;2300;51.874;8.430;2023-07-31T10:37:23;99908.34;;;17.65;100.00
4576;BME280;2300;51.874;8.430;2023-07-31T10:39:58;99909.88;;;17.52;100.00
4576;BME280;2300;51.874;8.430;2023-07-31T10:42:30;99910.47;;;17.49;100.00
4576;BME280;2300;51.874;8.430;2023-07-31T10:44:58;99905.88;;;17.40;100.00
4576;BME280;2300;51.874;8.430;2023-07-31T10:47:25;99911.88;;;17.47;100.00
4576;BME280;2300;51.874;8.430;2023-07-31T10:50:11;99903.34;;;17.62;100.00
4576;BME280;2300;51.874;8.430;2023-07-31T10:52:37;99903.53;;;17.89;100.00
4576;BME280;2300;51.874;8.430;2023-07-31T10:55:15;99902.38;;;17.95;100.00
4576;BME280;2300;51.874;8.430;2023-07-31T10:57:44;99910.16;;;17.93;100.00
4576;BME280;2300;51.874;8.430;2023-07-31T11:00:19;99899.66;;;17.90;100.00
4576;BME280;2300;51.874;8.430;2023-07-31T11:02:56;99891.38;;;17.85;100.00
4576;BME280;2300;51.874;8.430;2023-07-31T11:05:41;99889.72;;;17.66;100.00
4576;BME280;2300;51.874;8.430;2023-07-31T11:08:12;99892.44;;;17.71;100.00
4576;BME280;2300;51.874;8.430;2023-07-31T11:10:39;99893.91;;;17.63;100.00
4576;BME280;2300;51.874;8.430;2023-07-31T11:13:05;99894.97;;;17.67;100.00
4576;BME280;2300;51.874;8.430;2023-07-31T11:15:32;99900.50;;;17.67;100.00
4576;BME280;2300;51.874;8.430;2023-07-31T11:18:00;99884.06;;;17.52;100.00
4576;BME280;2300;51.874;8.430;2023-07-31T11:20:31;99896.88;;;17.48;100.00
4576;BME280;2300;51.874;8.430;2023-07-31T11:22:59;99851.69;;;17.24;100.00
4576;BME280;2300;51.874;8.430;2023-07-31T11:25:28;99892.66;;;17.74;100.00
4576;BME280;2300;51.874;8.430;2023-07-31T11:27:55;99889.22;;;17.82;100.00
4576;BME280;2300;51.874;8.430;2023-07-31T11:30:22;99893.25;;;17.90;100.00
4576;BME280;2300;51.874;8.430;2023-07-31T11:32:49;99878.13;;;18.01;100.00
4576;BME280;2300;51.874;8.430;2023-07-31T11:35:16;99880.88;;;18.20;100.00
4576;BME280;2300;51.874;8.430;2023-07-31T11:37:44;99888.97;;;18.35;100.00
4576;BME280;2300;51.874;8.430;2023-07-31T11:40:11;99858.06;;;18.23;100.00
4576;BME280;2300;51.874;8.430;2023-07-31T11:42:38;99873.91;;;18.22;100.00
4576;BME280;2300;51.874;8.430;2023-07-31T11:45:05;99874.78;;;18.36;100.00
4576;BME280;2300;51.874;8.430;2023-07-31T11:47:32;99867.91;;;18.34;100.00
4576;BME280;2300;51.874;8.430;2023-07-31T11:50:00;99870.81;;;18.42;100.00
4576;BME280;2300;51.874;8.430;2023-07-31T11:52:27;99868.03;;;18.42;100.00
4576;BME280;2300;51.874;8.430;2023-07-31T11:54:56;99873.13;;;18.54;100.00
4576;BME280;2300;51.874;8.430;2023-07-31T11:57:24;99869.53;;;18.35;100.00
4576;BME280;2300;51.874;8.430;2023-07-31T11:59:52;99876.25;;;18.34;100.00
4576;BME280;2300;51.874;8.430;2023-07-31T12:02:19;99876.25;;;18.34;100.00
4576;BME280;2300;51.874;8.430;2023-07-31T12:04:46;99870.84;;;18.24;100.00
4576;BME280;2300;51.874;8.430;2023-07-31T12:07:13;99879.56;;;18.17;100.00
4576;BME280;2300;51.874;8.430;2023-07-31T12:09:50;99871.81;;;18.14;100.00
4576;BME280;2300;51.874;8.430;2023-07-31T12:12:20;99863.63;;;18.23;100.00
4576;BME280;2300;51.874;8.430;2023-07-31T12:14:48;99860.84;;;18.23;100.00
4576;BME280;2300;51.874;8.430;2023-07-31T12:17:17;99866.53;;;18.31;100.00
4576;BME280;2300;51.874;8.430;2023-07-31T12:19:45;99874.66;;;18.28;100.00
4576;BME280;2300;51.874;8.430;2023-07-31T12:22:12;99868.56;;;18.26;100.00
4576;BME280;2300;51.874;8.430;2023-07-31T12:24:39;99870.84;;;18.24;100.00
4576;BME280;2300;51.874;8.430;2023-07-31T12:27:10;99863.41;;;18.19;100.00
4576;BME280;2300;51.874;8.430;2023-07-31T12:29:38;99865.97;;;18.16;100.00
4576;BME280;2300;51.874;8.430;2023-07-31T12:32:19;99868.97;;;18.00;100.00
4576;BME280;2300;51.874;8.430;2023-07-31T12:34:45;99860.31;;;17.83;100.00
4576;BME280;2300;51.874;8.430;2023-07-31T12:37:12;99852.06;;;17.78;100.00
4576;BME280;2300;51.874;8.430;2023-07-31T12:39:38;99871.41;;;17.83;100.00
4576;BME280;2300;51.874;8.430;2023-07-31T12:42:06;99860.47;;;17.73;100.00
4576;BME280;2300;51.874;8.430;2023-07-31T12:44:32;99863.22;;;17.73;100.00
4576;BME280;2300;51.874;8.430;2023-07-31T12:47:00;99865.44;;;17.76;100.00
4576;BME280;2300;51.874;8.430;2023-07-31T12:49:27;99869.84;;;17.58;100.00
4576;BME280;2300;51.874;8.430;2023-07-31T12:51:53;99873.97;;;17.61;100.00
4576;BME280;2300;51.874;8.430;2023-07-31T12:54:20;99867.81;;;17.64;100.00
4576;BME280;2300;51.874;8.430;2023-07-31T12:56:47;99869.47;;;17.65;100.00
4576;BME280;2300;51.874;8.430;2023-07-31T12:59:14;99867.53;;;17.84;100.00
4576;BME280;2300;51.874;8.430;2023-07-31T13:01:41;99857.25;;;18.03;100.00
4576;BME280;2300;51.874;8.430;2023-07-31T13:04:09;99858.13;;;18.36;100.00
4576;BME280;2300;51.874;8.430;2023-07-31T13:06:36;99852.00;;;18.85;100.00
4576;BME280;2300;51.874;8.430;2023-07-31T13:09:02;99849.00;;;19.23;100.00